Time;durP1;ratioP1;P1;durP2;ratioP2;P2;SDS_P1;SDS_P2;PMS_P1;PMS_P2;Temp;Humidity;BMP_temperature;BMP_pressure;BME280_temperature;BME280_humidity;BME280_pressure;Samples;Min_cycle;Max_cycle;Signal;HPM_P1;HPM_P2
2023/03/20 00:01:12;;;;;;;11.88;7.75;;;11.10;99.90;;;;;;4957786;28;93085;-73
2023/03/20 00:03:39;;;;;;;12.05;7.45;;;11.10;99.90;;;;;;4957691;28;92537;-73
2023/03/20 00:06:15;;;;;;;11.85;7.88;;;11.10;99.90;;;;;;4958018;28;92010;-73
2023/03/20 00:08:44;;;;;;;13.60;7.40;;;11.10;99.90;;;;;;4957754;28;93394;-73
2023/03/20 00:11:33;;;;;;;12.18;7.55;;;11.10;99.90;;;;;;4956656;28;100987;-73
2023/03/20 00:14:03;;;;;;;11.35;7.30;;;11.20;99.90;;;;;;4956810;28;94847;-73
2023/03/20 00:16:33;;;;;;;8.75;6.93;;;11.10;99.90;;;;;;4957431;28;92412;-73
2023/03/20 00:19:00;;;;;;;11.90;8.00;;;11.10;99.90;;;;;;4957145;28;103548;-73
2023/03/20 00:21:28;;;;;;;10.82;7.32;;;11.10;99.90;;;;;;4971913;28;95966;-73
2023/03/20 00:23:55;;;;;;;11.45;7.53;;;11.10;99.90;;;;;;4956084;28;92498;-73
2023/03/20 00:26:27;;;;;;;11.27;7.22;;;11.10;99.90;;;;;;4955964;28;92559;-73
2023/03/20 00:28:55;;;;;;;11.43;7.50;;;11.10;99.90;;;;;;4957387;28;93207;-73
2023/03/20 00:31:31;;;;;;;13.35;8.05;;;11.10;99.90;;;;;;4972334;28;94275;-73
2023/03/20 00:34:01;;;;;;;13.18;8.60;;;11.20;99.90;;;;;;4957454;28;92475;-73
2023/03/20 00:36:28;;;;;;;16.60;9.10;;;11.10;99.90;;;;;;4955604;28;92489;-73
2023/03/20 00:38:58;;;;;;;13.85;9.00;;;11.10;99.90;;;;;;4970268;28;102135;-73
2023/03/20 00:41:41;;;;;;;14.50;9.95;;;11.10;99.90;;;;;;4956980;28;95390;-73
2023/03/20 00:44:21;;;;;;;18.85;10.48;;;11.10;99.90;;;;;;4955640;28;92576;-73
2023/03/20 00:46:53;;;;;;;17.75;10.95;;;11.10;99.90;;;;;;4956430;28;92496;-73
2023/03/20 00:49:31;;;;;;;15.77;10.45;;;11.10;99.90;;;;;;4956258;28;93052;-73
2023/03/20 00:52:00;;;;;;;19.42;10.88;;;11.10;99.90;;;;;;4971224;28;95620;-73
2023/03/20 00:54:28;;;;;;;15.65;9.32;;;11.00;99.90;;;;;;4955001;28;92490;-73
2023/03/20 00:57:05;;;;;;;15.02;10.32;;;11.00;99.90;;;;;;4955677;28;96142;-73
2023/03/20 00:59:36;;;;;;;16.58;9.98;;;11.00;99.90;;;;;;4970788;28;95755;-73
2023/03/20 01:02:04;;;;;;;19.90;10.23;;;11.00;99.90;;;;;;4970944;28;95732;-73
2023/03/20 01:04:41;;;;;;;18.25;10.18;;;10.90;99.90;;;;;;4970013;28;94967;-74
2023/03/20 01:07:13;;;;;;;14.82;9.60;;;11.00;99.90;;;;;;4954611;28;92526;-73
2023/03/20 01:09:40;;;;;;;14.55;9.70;;;11.00;99.90;;;;;;4956453;28;93261;-74
2023/03/20 01:12:10;;;;;;;14.90;8.55;;;10.90;99.90;;;;;;4938030;28;95541;-73
2023/03/20 01:14:40;;;;;;;12.48;8.52;;;10.90;99.90;;;;;;4956684;28;92528;-73
2023/03/20 01:17:18;;;;;;;11.98;8.07;;;10.90;99.90;;;;;;4955209;28;92518;-73
2023/03/20 01:19:45;;;;;;;15.52;8.75;;;10.90;99.90;;;;;;4956459;28;93188;-73
2023/03/20 01:22:21;;;;;;;15.25;8.43;;;10.90;99.90;;;;;;4955574;28;91928;-74
2023/03/20 01:24:48;;;;;;;15.15;8.63;;;10.90;99.90;;;;;;4956249;28;92468;-73
2023/03/20 01:27:17;;;;;;;12.25;7.72;;;10.90;99.90;;;;;;4956492;28;92450;-74
2023/03/20 01:29:45;;;;;;;11.68;7.80;;;10.90;99.90;;;;;;4954680;28;95466;-73
2023/03/20 01:32:18;;;;;;;12.07;8.05;;;10.90;99.90;;;;;;4938884;28;98094;-73
2023/03/20 01:34:48;;;;;;;11.55;7.75;;;10.90;99.90;;;;;;4971319;28;92935;-73
2023/03/20 01:37:24;;;;;;;11.27;7.55;;;10.80;99.90;;;;;;4987821;28;92579;-73
2023/03/20 01:39:52;;;;;;;12.25;8.38;;;10.90;99.90;;;;;;4954601;28;95525;-74
2023/03/20 01:42:19;;;;;;;12.63;7.50;;;10.80;99.90;;;;;;4987604;28;95670;-73
2023/03/20 01:44:47;;;;;;;16.92;7.55;;;10.90;99.90;;;;;;4954751;28;92642;-73
2023/03/20 01:47:18;;;;;;;9.48;6.55;;;10.80;99.90;;;;;;4988103;28;91825;-73
2023/03/20 01:50:27;;;;;;;11.48;7.10;;;10.80;99.90;;;;;;4987505;28;94059;-73
2023/03/20 01:53:17;;;;;;;11.23;6.60;;;10.80;99.90;;;;;;4987588;28;95438;-73
2023/03/20 01:55:53;;;;;;;9.53;6.23;;;10.70;99.90;;;;;;4953211;28;94965;-73
2023/03/20 01:58:30;;;;;;;9.50;6.22;;;10.70;99.90;;;;;;4970846;28;92449;-72
2023/03/20 02:00:58;;;;;;;10.30;5.95;;;10.70;99.90;;;;;;4954231;28;94664;-72
2023/03/20 02:03:26;;;;;;;10.77;6.25;;;10.60;99.90;;;;;;4938194;28;95280;-72
2023/03/20 02:06:12;;;;;;;11.07;5.65;;;10.60;99.90;;;;;;4954710;28;93056;-72
2023/03/20 02:09:05;;;;;;;8.48;5.65;;;10.60;99.90;;;;;;4941723;28;92538;-73
2023/03/20 02:11:40;;;;;;;9.18;5.32;;;10.60;99.90;;;;;;4954872;28;95605;-72
2023/03/20 02:14:08;;;;;;;11.10;6.20;;;10.60;99.90;;;;;;4970848;28;95589;-72
2023/03/20 02:16:45;;;;;;;10.63;6.18;;;10.60;99.90;;;;;;4954073;28;92526;-72
2023/03/20 02:19:38;;;;;;;10.82;5.63;;;10.60;99.90;;;;;;4987459;28;92498;-72
2023/03/20 02:22:04;;;;;;;;;;;10.60;99.90;;;;;;4973206;28;98846;-72
2023/03/20 02:24:57;;;;;;;11.38;6.07;;;10.50;99.90;;;;;;4975105;28;96962;-72
2023/03/20 02:27:53;;;;;;;9.55;6.63;;;10.60;99.90;;;;;;4974458;28;92458;-72
2023/03/20 02:30:30;;;;;;;12.93;6.80;;;10.50;99.90;;;;;;4990802;28;93191;-72
2023/03/20 02:33:22;;;;;;;11.88;6.22;;;10.50;99.90;;;;;;4973702;28;95516;-72
2023/03/20 02:36:04;;;;;;;13.00;6.38;;;10.60;99.90;;;;;;4990342;28;95319;-72
2023/03/20 02:38:40;;;;;;;12.77;6.90;;;10.60;99.90;;;;;;4973991;28;92507;-72
2023/03/20 02:41:21;;;;;;;14.68;7.47;;;10.60;99.90;;;;;;4957720;28;91787;-72
2023/03/20 02:44:15;;;;;;;11.68;6.97;;;10.60;99.90;;;;;;4973316;28;96210;-72
2023/03/20 02:46:52;;;;;;;12.70;6.70;;;10.60;99.90;;;;;;4957383;28;94890;-72
2023/03/20 02:49:34;;;;;;;14.20;7.25;;;10.50;99.90;;;;;;4972021;28;94965;-72
2023/03/20 02:52:23;;;;;;;13.90;7.10;;;10.50;99.90;;;;;;4973713;28;92385;-72
2023/03/20 02:55:20;;;;;;;15.43;6.60;;;10.50;99.90;;;;;;4973395;28;95625;-72
2023/03/20 02:58:21;;;;;;;14.23;6.75;;;10.50;99.90;;;;;;4961297;28;95735;-73
2023/03/20 03:00:55;;;;;;;12.75;7.68;;;10.50;99.90;;;;;;4954337;28;92503;-72
2023/03/20 03:03:30;;;;;;;12.03;7.60;;;10.40;99.90;;;;;;4973322;28;92444;-72
2023/03/20 03:06:07;;;;;;;17.42;7.68;;;10.40;99.90;;;;;;4973114;28;95752;-72
2023/03/20 03:08:39;;;;;;;16.08;8.52;;;10.40;99.90;;;;;;4957406;28;95911;-72
2023/03/20 03:11:08;;;;;;;13.20;8.15;;;10.40;99.90;;;;;;4958669;28;92379;-72
2023/03/20 03:13:41;;;;;;;12.70;8.55;;;10.40;99.90;;;;;;4989855;28;92543;-72
2023/03/20 03:16:15;;;;;;;16.63;9.75;;;10.40;99.90;;;;;;4988675;28;95672;-72
2023/03/20 03:18:45;;;;;;;18.77;9.50;;;10.40;99.90;;;;;;4973032;28;97836;-72
2023/03/20 03:21:16;;;;;;;16.30;9.18;;;10.40;99.90;;;;;;4956922;28;92417;-72
2023/03/20 03:23:48;;;;;;;16.98;9.50;;;10.40;99.90;;;;;;4973323;28;93080;-73
2023/03/20 03:26:25;;;;;;;17.42;9.57;;;10.40;99.90;;;;;;4972993;28;95623;-73
2023/03/20 03:29:01;;;;;;;13.68;9.07;;;10.40;99.90;;;;;;4956545;28;95369;-72
2023/03/20 03:31:30;;;;;;;17.38;9.75;;;10.40;99.90;;;;;;4956576;28;92452;-72
2023/03/20 03:34:00;;;;;;;15.07;9.07;;;10.40;99.90;;;;;;4989869;28;91811;-72
2023/03/20 03:36:51;;;;;;;15.20;9.18;;;10.40;99.90;;;;;;4957801;28;93023;-72
2023/03/20 03:39:38;;;;;;;15.02;8.43;;;10.40;99.90;;;;;;4972727;28;95067;-72
2023/03/20 03:42:14;;;;;;;15.02;8.55;;;10.40;99.90;;;;;;4971343;28;94812;-72
2023/03/20 03:45:09;;;;;;;13.93;9.07;;;10.30;99.90;;;;;;4972716;28;92462;-72
2023/03/20 03:47:40;;;;;;;20.23;9.23;;;10.40;99.90;;;;;;4972851;28;95782;-72
2023/03/20 03:50:20;;;;;;;15.00;9.65;;;10.20;99.90;;;;;;4957441;28;92476;-72
2023/03/20 03:52:51;;;;;;;17.17;9.30;;;10.30;99.90;;;;;;4956462;28;92429;-72
2023/03/20 03:55:25;;;;;;;18.10;9.35;;;10.20;99.90;;;;;;4972806;28;92494;-72
2023/03/20 03:58:08;;;;;;;20.00;9.38;;;10.30;99.90;;;;;;4971327;28;94721;-72
2023/03/20 04:00:40;;;;;;;18.35;10.20;;;10.30;99.90;;;;;;4958057;28;92944;-72
2023/03/20 04:03:08;;;;;;;21.52;11.60;;;10.30;99.90;;;;;;4988644;28;92455;-72
2023/03/20 04:05:39;;;;;;;16.77;9.52;;;10.30;99.90;;;;;;4955746;28;92528;-72
2023/03/20 04:08:06;;;;;;;17.80;10.10;;;10.30;99.90;;;;;;4970809;28;97336;-72
2023/03/20 04:10:34;;;;;;;14.73;9.73;;;10.30;99.90;;;;;;4956972;28;95468;-72
2023/03/20 04:13:01;;;;;;;15.18;10.60;;;10.30;99.90;;;;;;4955974;28;92519;-73
2023/03/20 04:15:28;;;;;;;13.50;9.48;;;10.30;99.90;;;;;;4955428;28;92906;-72
2023/03/20 04:17:55;;;;;;;14.80;9.00;;;10.30;99.90;;;;;;4956081;28;93282;-72
2023/03/20 04:20:22;;;;;;;19.42;10.52;;;10.20;99.90;;;;;;4955930;28;95036;-73
2023/03/20 04:22:49;;;;;;;18.77;10.13;;;10.30;99.90;;;;;;4988316;28;92414;-72
2023/03/20 04:25:23;;;;;;;15.80;10.85;;;10.30;99.90;;;;;;4988427;28;91824;-72
2023/03/20 04:27:53;;;;;;;18.25;10.63;;;10.30;99.90;;;;;;4971514;28;95938;-73
2023/03/20 04:30:31;;;;;;;17.48;11.18;;;10.30;99.90;;;;;;4973159;28;95540;-72
2023/03/20 04:33:07;;;;;;;18.70;11.10;;;10.30;99.90;;;;;;4967948;28;94813;-73
2023/03/20 04:35:52;;;;;;;16.20;10.90;;;10.30;99.90;;;;;;4988301;28;92469;-72
2023/03/20 04:38:20;;;;;;;18.90;11.20;;;10.30;99.90;;;;;;4987781;28;95855;-72
2023/03/20 04:40:48;;;;;;;18.42;11.73;;;10.30;99.90;;;;;;4971184;28;95089;-72
2023/03/20 04:43:15;;;;;;;17.27;12.23;;;10.20;99.90;;;;;;4954187;28;92446;-72
2023/03/20 04:45:42;;;;;;;20.63;11.18;;;10.20;99.90;;;;;;4971330;28;92459;-72
2023/03/20 04:48:09;;;;;;;19.25;10.80;;;10.20;99.90;;;;;;4955040;28;95725;-73
2023/03/20 04:50:36;;;;;;;17.27;10.85;;;10.30;99.90;;;;;;4971398;28;95504;-72
2023/03/20 04:53:04;;;;;;;17.30;11.23;;;10.20;99.90;;;;;;4956224;28;92469;-72
2023/03/20 04:55:32;;;;;;;14.23;10.18;;;10.30;99.90;;;;;;4954865;28;92637;-72
2023/03/20 04:57:59;;;;;;;15.75;10.50;;;10.20;99.90;;;;;;4953415;28;98494;-72
2023/03/20 05:00:27;;;;;;;16.67;10.55;;;10.20;99.90;;;;;;4971323;28;98025;-72
2023/03/20 05:02:54;;;;;;;15.18;10.32;;;10.20;99.90;;;;;;4987848;28;92532;-72
2023/03/20 05:05:22;;;;;;;15.70;10.02;;;10.20;99.90;;;;;;4970711;28;92418;-72
2023/03/20 05:07:51;;;;;;;17.20;8.90;;;10.20;99.90;;;;;;4987599;28;95920;-72
2023/03/20 05:10:32;;;;;;;13.38;8.77;;;10.20;99.90;;;;;;4969568;28;95369;-72
2023/03/20 05:13:05;;;;;;;12.40;8.33;;;10.10;99.90;;;;;;4971380;28;92658;-72
2023/03/20 05:15:49;;;;;;;12.82;8.70;;;10.10;99.90;;;;;;4971653;28;91784;-72
2023/03/20 05:18:27;;;;;;;14.15;9.07;;;10.10;99.90;;;;;;4971320;28;96036;-73
2023/03/20 05:21:17;;;;;;;13.60;8.13;;;10.10;99.90;;;;;;4936408;28;92825;-72
2023/03/20 05:24:05;;;;;;;12.13;8.38;;;10.00;99.90;;;;;;4955003;28;95035;-72
2023/03/20 05:26:47;;;;;;;10.70;7.28;;;10.00;99.90;;;;;;4988147;28;92518;-72
2023/03/20 05:29:43;;;;;;;15.50;7.95;;;10.00;99.90;;;;;;4955109;28;94243;-72
2023/03/20 05:32:42;;;;;;;12.52;6.97;;;10.00;99.90;;;;;;4941610;28;92714;-72
2023/03/20 05:35:28;;;;;;;13.93;7.35;;;9.90;99.90;;;;;;4954377;28;92536;-72
2023/03/20 05:38:04;;;;;;;10.55;6.95;;;10.00;99.90;;;;;;4971341;28;92547;-72
2023/03/20 05:40:57;;;;;;;12.27;6.85;;;10.00;99.90;;;;;;4954569;28;95707;-72
2023/03/20 05:43:36;;;;;;;9.68;6.53;;;10.00;99.90;;;;;;4969754;28;95234;-72
2023/03/20 05:46:18;;;;;;;9.85;6.70;;;10.00;99.90;;;;;;4954730;28;92475;-72
2023/03/20 05:49:17;;;;;;;14.93;7.10;;;10.00;99.90;;;;;;4933340;28;92616;-73
2023/03/20 05:52:10;;;;;;;10.90;7.30;;;10.00;99.90;;;;;;4965899;28;96493;-72
2023/03/20 05:54:56;;;;;;;11.10;7.85;;;10.00;99.90;;;;;;4967935;28;97930;-72
2023/03/20 05:57:33;;;;;;;15.57;8.10;;;10.00;99.90;;;;;;4956254;28;92492;-73
2023/03/20 06:00:26;;;;;;;13.25;8.48;;;10.00;99.90;;;;;;4970841;28;92533;-72
2023/03/20 06:03:11;;;;;;;13.27;7.75;;;10.00;99.90;;;;;;4968179;28;92726;-72
2023/03/20 06:05:55;;;;;;;12.50;8.67;;;10.10;99.90;;;;;;4970754;28;95910;-73
2023/03/20 06:08:22;;;;;;;14.27;8.82;;;10.00;99.90;;;;;;4954606;28;93032;-73
2023/03/20 06:10:50;;;;;;;13.43;9.50;;;10.10;99.90;;;;;;4954957;28;91783;-73
2023/03/20 06:13:17;;;;;;;17.13;9.30;;;10.10;99.90;;;;;;4970263;28;95200;-72
2023/03/20 06:15:45;;;;;;;14.63;9.00;;;10.10;99.90;;;;;;4987330;28;95172;-72
2023/03/20 06:18:15;;;;;;;14.15;9.35;;;10.10;99.90;;;;;;4969564;28;95199;-72
2023/03/20 06:20:42;;;;;;;13.15;9.00;;;10.10;99.90;;;;;;4970765;28;92525;-72
2023/03/20 06:23:09;;;;;;;12.50;9.38;;;10.10;99.90;;;;;;4954154;28;95785;-72
2023/03/20 06:25:37;;;;;;;14.40;9.60;;;10.20;99.90;;;;;;4970225;28;95037;-73
2023/03/20 06:28:05;;;;;;;14.05;9.52;;;10.20;99.90;;;;;;4987193;28;92408;-72
2023/03/20 06:30:32;;;;;;;14.88;9.90;;;10.20;99.90;;;;;;4953969;28;92569;-72
2023/03/20 06:32:59;;;;;;;13.88;9.15;;;10.20;99.90;;;;;;4953973;28;95499;-72
2023/03/20 06:35:35;;;;;;;14.63;9.93;;;10.30;99.90;;;;;;4970571;28;95467;-72
2023/03/20 06:38:03;;;;;;;14.15;9.65;;;10.30;99.90;;;;;;4970677;28;92515;-73
2023/03/20 06:40:31;;;;;;;14.20;9.27;;;10.40;99.90;;;;;;4970231;28;92542;-72
2023/03/20 06:42:58;;;;;;;14.20;9.77;;;10.40;99.90;;;;;;4952907;28;97947;-72
2023/03/20 06:45:35;;;;;;;12.85;9.35;;;10.40;99.90;;;;;;4953573;28;97406;-72
2023/03/20 06:48:10;;;;;;;;;;;10.50;99.90;;;;;;4971134;28;92480;-72
2023/03/20 06:50:37;;;;;;;15.68;9.77;;;10.40;99.90;;;;;;4984921;28;92438;-73
2023/03/20 06:53:04;;;;;;;12.90;8.73;;;10.50;99.90;;;;;;4986836;28;95193;-72
2023/03/20 06:55:45;;;;;;;12.40;8.80;;;10.50;99.90;;;;;;4957100;28;93990;-73
2023/03/20 06:58:12;;;;;;;12.43;8.68;;;10.60;99.90;;;;;;4954526;28;93048;-72
2023/03/20 07:00:39;;;;;;;13.43;9.60;;;10.70;99.90;;;;;;4953817;28;91827;-72
2023/03/20 07:03:08;;;;;;;10.80;8.85;;;10.70;99.90;;;;;;4953689;28;95524;-72
2023/03/20 07:05:37;;;;;;;11.02;8.10;;;10.80;99.90;;;;;;4970368;28;95263;-72
2023/03/20 07:08:07;;;;;;;13.45;9.48;;;10.90;99.90;;;;;;4971830;28;94832;-72
2023/03/20 07:10:36;;;;;;;13.35;8.00;;;11.00;99.90;;;;;;4973224;28;92556;-73
2023/03/20 07:13:03;;;;;;;12.45;8.48;;;11.00;99.90;;;;;;4972807;28;95877;-72
2023/03/20 07:15:31;;;;;;;11.38;8.68;;;11.10;99.90;;;;;;4956533;28;95568;-73
2023/03/20 07:17:58;;;;;;;10.00;8.23;;;11.10;99.90;;;;;;4973301;28;92529;-72
2023/03/20 07:20:26;;;;;;;14.07;8.00;;;11.20;99.90;;;;;;4973058;28;92567;-72
2023/03/20 07:22:54;;;;;;;13.52;7.82;;;11.20;99.90;;;;;;4972931;28;95723;-73
2023/03/20 07:25:24;;;;;;;11.48;7.53;;;11.30;99.90;;;;;;4972609;28;95479;-73
2023/03/20 07:28:07;;;;;;;13.83;8.83;;;11.30;99.90;;;;;;4958724;28;92985;-72
2023/03/20 07:30:37;;;;;;;12.50;8.05;;;11.30;99.90;;;;;;4972706;28;93268;-73
2023/03/20 07:33:05;;;;;;;11.10;7.82;;;11.30;99.90;;;;;;4955486;28;97940;-72
2023/03/20 07:35:33;;;;;;;11.32;7.50;;;11.40;99.90;;;;;;4989326;28;97872;-72
2023/03/20 07:38:01;;;;;;;12.85;7.88;;;11.40;99.90;;;;;;4940648;28;92604;-73
2023/03/20 07:40:28;;;;;;;11.93;8.05;;;11.40;99.90;;;;;;4972646;28;92645;-73
2023/03/20 07:43:00;;;;;;;13.10;8.00;;;11.50;99.90;;;;;;4956436;28;95810;-72
2023/03/20 07:45:50;;;;;;;9.90;7.35;;;11.60;99.90;;;;;;4937845;28;92831;-73
2023/03/20 07:48:18;;;;;;;13.27;8.48;;;11.60;99.90;;;;;;4989848;28;93057;-73
2023/03/20 07:50:45;;;;;;;13.77;7.78;;;11.70;99.90;;;;;;4956700;28;91749;-73
2023/03/20 07:53:12;;;;;;;11.52;7.68;;;11.80;99.90;;;;;;4956298;28;95567;-73
2023/03/20 07:55:39;;;;;;;13.05;7.10;;;11.80;99.90;;;;;;4972311;28;95584;-73
2023/03/20 07:58:09;;;;;;;10.57;7.47;;;11.90;99.90;;;;;;4971691;28;94891;-73
2023/03/20 08:00:36;;;;;;;9.50;8.02;;;12.00;99.90;;;;;;4956196;28;92508;-73
2023/03/20 08:03:03;;;;;;;13.43;7.10;;;12.10;99.90;;;;;;4940082;28;95767;-73
2023/03/20 08:05:31;;;;;;;11.38;7.72;;;12.20;99.90;;;;;;4972219;28;95888;-72
2023/03/20 08:07:58;;;;;;;12.43;6.80;;;12.20;99.90;;;;;;4956624;28;92466;-72
2023/03/20 08:10:25;;;;;;;11.00;8.38;;;12.30;99.90;;;;;;4972528;28;92489;-72
2023/03/20 08:12:53;;;;;;;11.48;7.85;;;12.40;99.90;;;;;;4956736;28;102525;-72
2023/03/20 08:15:20;;;;;;;13.05;8.27;;;12.50;99.90;;;;;;4956236;28;95601;-72
2023/03/20 08:17:47;;;;;;;14.63;8.73;;;12.50;99.90;;;;;;4956294;28;92391;-73
2023/03/20 08:20:15;;;;;;;11.05;7.28;;;12.60;99.90;;;;;;4957512;28;92469;-73
2023/03/20 08:22:46;;;;;;;12.43;6.82;;;12.70;99.90;;;;;;4954633;28;98392;-72
2023/03/20 08:25:14;;;;;;;14.05;8.57;;;12.70;99.90;;;;;;4957163;28;95257;-73
2023/03/20 08:27:41;;;;;;;11.38;7.10;;;12.80;99.90;;;;;;4956759;28;95055;-72
2023/03/20 08:30:09;;;;;;;13.15;7.68;;;12.90;99.90;;;;;;4972399;28;92618;-72
2023/03/20 08:32:36;;;;;;;11.73;7.88;;;13.00;99.90;;;;;;4971763;28;95938;-72
2023/03/20 08:35:03;;;;;;;13.82;7.68;;;13.00;99.90;;;;;;4957094;28;92644;-72
2023/03/20 08:37:30;;;;;;;12.00;8.05;;;13.10;99.90;;;;;;4972449;28;92659;-73
2023/03/20 08:39:57;;;;;;;10.00;7.55;;;13.20;99.90;;;;;;4957515;28;91739;-73
2023/03/20 08:42:24;;;;;;;12.05;7.70;;;13.30;99.90;;;;;;4957132;28;93194;-72
2023/03/20 08:44:51;;;;;;;13.05;7.60;;;13.40;99.90;;;;;;4971336;28;103192;-73
2023/03/20 08:47:18;;;;;;;12.85;8.32;;;13.60;99.90;;;;;;4956025;28;94816;-73
2023/03/20 08:49:45;;;;;;;11.80;8.55;;;13.70;99.90;;;;;;4956006;28;100578;-73
2023/03/20 08:52:13;;;;;;;11.05;7.68;;;13.80;99.90;;;;;;4939710;28;93310;-72
2023/03/20 08:54:39;;;;;;;12.68;7.90;;;13.90;99.90;;;;;;4956441;28;93001;-73
2023/03/20 08:57:06;;;;;;;14.60;8.95;;;14.00;99.90;;;;;;4939531;28;92970;-72
2023/03/20 08:59:34;;;;;;;13.23;8.07;;;14.00;99.90;;;;;;4941845;28;92575;-73
2023/03/20 09:02:01;;;;;;;11.38;7.63;;;14.10;99.90;;;;;;4975836;28;94073;-73
2023/03/20 09:04:28;;;;;;;14.15;8.23;;;14.10;99.90;;;;;;4961604;28;93122;-73
2023/03/20 09:06:55;;;;;;;10.02;8.00;;;14.20;99.90;;;;;;4958924;28;92541;-73
2023/03/20 09:09:28;;;;;;;13.88;8.95;;;14.30;99.90;;;;;;4958761;28;92558;-73
2023/03/20 09:11:58;;;;;;;11.60;8.37;;;14.40;99.90;;;;;;4974248;28;95384;-73
2023/03/20 09:14:26;;;;;;;10.77;7.43;;;14.50;99.90;;;;;;4974528;28;96727;-73
2023/03/20 09:16:53;;;;;;;13.93;8.38;;;14.70;99.90;;;;;;4942300;28;92580;-73
2023/03/20 09:19:20;;;;;;;10.25;8.07;;;14.70;99.90;;;;;;4958411;28;92579;-73
2023/03/20 09:21:47;;;;;;;12.20;6.82;;;14.80;99.90;;;;;;4958182;28;95860;-73
2023/03/20 09:24:15;;;;;;;11.48;7.60;;;14.80;99.90;;;;;;4976121;28;92493;-73
2023/03/20 09:26:42;;;;;;;10.48;7.25;;;14.70;99.90;;;;;;4974852;28;92523;-73
2023/03/20 09:29:09;;;;;;;13.23;8.45;;;14.80;99.90;;;;;;4958844;28;91897;-72
2023/03/20 09:31:36;;;;;;;10.50;7.53;;;14.90;99.90;;;;;;4958671;28;93228;-73
2023/03/20 09:34:03;;;;;;;15.43;8.27;;;15.00;99.90;;;;;;4974239;28;96074;-73
2023/03/20 09:36:30;;;;;;;11.60;7.45;;;15.00;99.90;;;;;;4941443;28;94862;-73
2023/03/20 09:38:57;;;;;;;9.57;7.30;;;15.10;99.90;;;;;;4965607;28;92937;-73
2023/03/20 09:41:35;;;;;;;11.85;8.50;;;15.30;99.90;;;;;;4989671;28;93161;-73
2023/03/20 09:44:37;;;;;;;13.13;8.27;;;15.40;99.90;;;;;;4973672;28;94508;-73
2023/03/20 09:47:39;;;;;;;12.38;8.25;;;15.80;99.90;;;;;;4974565;28;92937;-73
2023/03/20 09:50:28;;;;;;;11.05;7.85;;;15.90;99.80;;;;;;4976023;28;92479;-73
2023/03/20 09:52:58;;;;;;;11.38;7.95;;;16.10;99.50;;;;;;4975588;28;94005;-73
2023/03/20 09:55:32;;;;;;;12.88;7.55;;;16.20;99.50;;;;;;4974674;28;92874;-73
2023/03/20 09:58:25;;;;;;;10.35;7.50;;;16.40;99.20;;;;;;4974466;28;92590;-73
2023/03/20 10:00:55;;;;;;;11.27;7.55;;;16.50;98.00;;;;;;4962856;28;92518;-73
2023/03/20 10:03:50;;;;;;;13.13;7.80;;;16.50;98.40;;;;;;4974134;28;95700;-73
2023/03/20 10:06:17;;;;;;;10.63;7.35;;;16.70;98.10;;;;;;4975558;28;94218;-73
2023/03/20 10:08:45;;;;;;;11.40;7.72;;;16.70;98.40;;;;;;4975453;28;92453;-73
2023/03/20 10:11:18;;;;;;;10.98;7.00;;;16.90;98.00;;;;;;4975412;28;92918;-73
2023/03/20 10:14:17;;;;;;;14.00;9.18;;;17.00;97.40;;;;;;4973383;28;98447;-73
2023/03/20 10:16:56;;;;;;;9.90;8.15;;;16.90;97.50;;;;;;4972386;28;92965;-73
2023/03/20 10:19:38;;;;;;;11.48;7.57;;;16.90;97.60;;;;;;4974545;28;92537;-73
2023/03/20 10:22:24;;;;;;;10.57;7.90;;;17.00;97.70;;;;;;4974060;28;91835;-73
2023/03/20 10:24:54;;;;;;;10.07;7.25;;;17.10;96.90;;;;;;4975375;28;93240;-73
2023/03/20 10:27:45;;;;;;;10.93;7.93;;;17.10;97.00;;;;;;4975346;28;93930;-73
2023/03/20 10:30:23;;;;;;;9.75;6.80;;;17.20;96.40;;;;;;4974474;28;94873;-73
2023/03/20 10:33:04;;;;;;;10.25;7.85;;;17.30;96.60;;;;;;4973740;28;92570;-73
2023/03/20 10:35:50;;;;;;;13.35;6.85;;;17.20;96.50;;;;;;4975396;28;93263;-73
2023/03/20 10:38:51;;;;;;;9.40;6.80;;;17.30;96.30;;;;;;4990210;28;95698;-73
2023/03/20 10:41:22;;;;;;;9.75;7.35;;;17.50;95.90;;;;;;4972452;28;92555;-73
2023/03/20 10:43:51;;;;;;;12.27;7.30;;;17.60;95.90;;;;;;4977379;28;92844;-73
2023/03/20 10:46:25;;;;;;;9.98;6.88;;;17.70;95.80;;;;;;4976627;28;103580;-73
2023/03/20 10:49:00;;;;;;;10.95;7.20;;;17.80;95.80;;;;;;4977597;28;93341;-73
2023/03/20 10:51:51;;;;;;;9.93;6.78;;;17.90;95.30;;;;;;4976981;28;92494;-73
2023/03/20 10:54:40;;;;;;;9.90;7.35;;;17.90;95.00;;;;;;4978519;28;92481;-73
2023/03/20 10:57:15;;;;;;;11.35;7.72;;;17.50;95.20;;;;;;4976871;28;95585;-73
2023/03/20 10:59:49;;;;;;;10.90;7.72;;;17.30;95.70;;;;;;4978111;28;96312;-73
2023/03/20 11:02:19;;;;;;;10.07;7.72;;;17.00;96.00;;;;;;4977052;28;92496;-73
2023/03/20 11:04:46;;;;;;;11.15;8.55;;;16.80;96.40;;;;;;4960434;28;92938;-73
2023/03/20 11:07:19;;;;;;;9.35;8.27;;;16.60;96.80;;;;;;4976634;28;93157;-73
2023/03/20 11:10:06;;;;;;;10.03;8.50;;;16.40;96.90;;;;;;4978158;28;93117;-73
2023/03/20 11:12:38;;;;;;;12.90;8.13;;;16.10;97.30;;;;;;4977614;28;92484;-73
2023/03/20 11:15:30;;;;;;;13.77;8.77;;;16.00;97.70;;;;;;4977436;28;92184;-73
2023/03/20 11:18:03;;;;;;;12.10;8.60;;;15.80;97.80;;;;;;4976397;28;95720;-73
2023/03/20 11:20:38;;;;;;;11.93;8.00;;;15.60;98.10;;;;;;4978179;28;92808;-73
2023/03/20 11:23:07;;;;;;;11.75;8.05;;;15.40;98.60;;;;;;4976690;28;94969;-73
2023/03/20 11:25:38;;;;;;;9.85;8.57;;;15.20;99.10;;;;;;4977660;28;93106;-73
2023/03/20 11:28:29;;;;;;;13.70;9.95;;;15.10;99.30;;;;;;4976532;28;93077;-73
2023/03/20 11:31:20;;;;;;;16.85;10.02;;;15.00;99.50;;;;;;4975786;28;95695;-75
2023/03/20 11:34:25;;;;;;;14.13;9.27;;;14.80;99.80;;;;;;4968110;28;92965;-73
2023/03/20 11:37:00;;;;;;;14.02;8.02;;;14.70;99.90;;;;;;4926977;28;92664;-73
2023/03/20 11:39:53;;;;;;;12.80;7.50;;;14.60;99.90;;;;;;4976120;28;95713;-73
2023/03/20 11:42:25;;;;;;;12.93;8.90;;;14.60;99.90;;;;;;4976806;28;93679;-72
2023/03/20 11:45:16;;;;;;;12.00;7.68;;;14.70;99.90;;;;;;4977833;28;92581;-73
2023/03/20 11:47:47;;;;;;;11.18;7.93;;;14.90;99.90;;;;;;4977853;28;92375;-73
2023/03/20 11:50:34;;;;;;;10.80;7.55;;;14.90;99.90;;;;;;4959323;28;95585;-73
2023/03/20 11:53:16;;;;;;;15.18;7.65;;;15.00;99.60;;;;;;4976927;28;95567;-73
2023/03/20 11:55:58;;;;;;;12.82;7.75;;;15.00;99.90;;;;;;4976328;28;92548;-73
2023/03/20 11:58:26;;;;;;;10.30;6.95;;;15.10;99.90;;;;;;4977631;28;92357;-73
2023/03/20 12:00:55;;;;;;;9.90;7.22;;;15.10;99.70;;;;;;4977177;28;93154;-73
2023/03/20 12:03:34;;;;;;;8.15;6.65;;;15.10;99.60;;;;;;4977076;28;93009;-73
2023/03/20 12:06:01;;;;;;;8.82;6.20;;;15.20;99.50;;;;;;4977087;28;92444;-73
2023/03/20 12:08:31;;;;;;;9.02;5.90;;;15.10;99.30;;;;;;4992263;28;99405;-73
2023/03/20 12:11:45;;;;;;;8.82;6.32;;;15.10;99.40;;;;;;4977307;28;93630;-73
2023/03/20 12:14:49;;;;;;;10.93;6.60;;;15.00;99.20;;;;;;4967064;28;95732;-73
2023/03/20 12:17:29;;;;;;;10.13;6.70;;;14.90;99.60;;;;;;4976069;28;95507;-73
2023/03/20 12:20:21;;;;;;;10.35;6.65;;;14.70;99.60;;;;;;4977696;28;92907;-73
2023/03/20 12:23:03;;;;;;;12.15;7.13;;;14.60;99.80;;;;;;4976792;28;94092;-73
2023/03/20 12:25:58;;;;;;;11.27;6.30;;;14.50;99.90;;;;;;4977004;28;92499;-73
2023/03/20 12:28:28;;;;;;;;;;;14.40;99.90;;;;;;4977131;28;92460;-73
2023/03/20 12:31:49;;;;;;;9.43;5.72;;;14.20;99.90;;;;;;4976822;28;92925;-73
2023/03/20 12:34:49;;;;;;;10.50;6.40;;;14.20;99.90;;;;;;4896415;28;93397;-73
2023/03/20 12:37:17;;;;;;;11.60;6.40;;;14.20;99.90;;;;;;4975324;28;94216;-73
2023/03/20 12:39:54;;;;;;;7.97;6.28;;;14.10;99.90;;;;;;4959123;28;92569;-73
2023/03/20 12:42:44;;;;;;;8.82;5.78;;;14.10;99.90;;;;;;4975024;28;92454;-75
2023/03/20 12:45:17;;;;;;;9.93;5.57;;;14.10;99.90;;;;;;4973505;28;98277;-75
2023/03/20 12:47:59;;;;;;;9.70;5.97;;;14.10;99.90;;;;;;4976530;28;95307;-75
2023/03/20 12:50:41;;;;;;;8.38;5.55;;;14.10;99.90;;;;;;4991751;28;93025;-75
2023/03/20 12:53:29;;;;;;;8.20;5.38;;;14.10;99.90;;;;;;4976623;28;92456;-75
2023/03/20 12:56:24;;;;;;;10.20;4.57;;;14.10;99.90;;;;;;4976749;28;93184;-75
2023/03/20 12:59:19;;;;;;;6.03;3.53;;;14.00;99.90;;;;;;4975329;28;92976;-75
2023/03/20 13:02:01;;;;;;;9.55;5.60;;;14.00;99.90;;;;;;4991767;28;92480;-75
2023/03/20 13:04:59;;;;;;;8.40;4.50;;;13.90;99.90;;;;;;4975953;28;91637;-75
2023/03/20 13:07:41;;;;;;;4.95;2.70;;;13.80;99.90;;;;;;4969859;28;93175;-75
2023/03/20 13:10:34;;;;;;;6.05;3.22;;;13.90;99.90;;;;;;4956620;28;92859;-75
2023/03/20 13:13:21;;;;;;;5.75;2.50;;;14.10;99.90;;;;;;4950503;28;94901;-75
2023/03/20 13:16:24;;;;;;;5.78;2.92;;;14.40;99.90;;;;;;4939558;28;92542;-75
2023/03/20 13:18:57;;;;;;;5.38;3.10;;;14.50;99.90;;;;;;4940795;28;93333;-75
2023/03/20 13:21:41;;;;;;;8.93;3.70;;;14.40;99.90;;;;;;4939124;28;92974;-75